Overview Statistics Trail Chart Weather Telemetry Raw packets
 

This is the latest recevied weather packets stored in our database for station/object IZ8XTV-13. If no packets are shown the sender has not sent any weather packets the latest 10 day(s).

<< 2 3 4 5 6 7 8 >>
Time Temp. Humidity Pressure Rain* Wind** Luminosity Snow
1777981006 20.56° C 82% 1017.9 hPa 0 mm - - -
1777980394 21.11° C 81% 1018 hPa 0 mm - - -
1777979783 21.11° C 81% 1018 hPa 0 mm - - -
1777979171 20.56° C 82% 1018 hPa 0 mm - - -
1777978559 19.44° C 82% 1018.1 hPa 0 mm - - -
1777977946 19.44° C 83% 1018.1 hPa 0 mm - - -
1777977334 19.44° C 84% 1018.2 hPa 0 mm - - -
1777976721 18.89° C 84% 1018.1 hPa 0 mm - - -
1777976110 18.89° C 83% 1018.1 hPa 0 mm - - -
1777975929 19.44° C 81% 1018.1 hPa 0 mm - - -
1777975317 18.33° C 83% 1018 hPa 0 mm - - -
1777974705 18.89° C 81% 1018.1 hPa 0 mm - - -
1777974094 19.44° C 81% 1018 hPa 0 mm - - -
1777973483 19.44° C 80% 1017.8 hPa 0 mm - - -
1777972871 18.89° C 79% 1017.6 hPa 0 mm - - -
1777972259 18.33° C 81% 1017.7 hPa 0 mm - - -
1777971646 18.33° C 83% 1017.8 hPa 0 mm - - -
1777971035 18.89° C 82% 1017.7 hPa 0 mm - - -
1777970423 18.89° C 81% 1017.6 hPa 0 mm - - -
1777969833 18.33° C 83% 1017.7 hPa 0 mm - - -
1777969200 18.33° C 84% 1017.9 hPa 0 mm - - -
1777968588 17.78° C 86% 1017.9 hPa 0 mm - - -
1777967977 17.22° C 90% 1017.9 hPa 0 mm - - -
1777967366 16.67° C 90% 1017.9 hPa 0 mm - - -
1777966755 16.67° C 93% 1017.9 hPa 0 mm - - -

* Rain latest hour (hover to see other rain measurements)
** Current wind speed in m/s (hover to see current wind gust speed)